sensor_id;sensor_type;location;lat;lon;timestamp;pressure;altitude;pressure_sealevel;temperature;humidity
34506;BME280;20748;42.632;23.198;2023-06-22T00:03:12;92531.88;;;16.64;94.13
34506;BME280;20748;42.632;23.198;2023-06-22T00:05:44;92537.59;;;16.67;93.77
34506;BME280;20748;42.632;23.198;2023-06-22T00:08:18;92532.78;;;16.69;94.49
34506;BME280;20748;42.632;23.198;2023-06-22T00:10:50;92529.50;;;16.72;94.12
34506;BME280;20748;42.632;23.198;2023-06-22T00:13:23;92530.78;;;16.66;93.45
34506;BME280;20748;42.632;23.198;2023-06-22T00:15:55;92526.03;;;16.59;94.46
34506;BME280;20748;42.632;23.198;2023-06-22T00:18:28;92521.44;;;16.56;94.80
34506;BME280;20748;42.632;23.198;2023-06-22T00:23:50;92506.31;;;16.44;95.28
34506;BME280;20748;42.632;23.198;2023-06-22T00:26:23;92505.75;;;16.38;95.25
34506;BME280;20748;42.632;23.198;2023-06-22T00:28:56;92500.69;;;16.33;95.51
34506;BME280;20748;42.632;23.198;2023-06-22T00:31:28;92495.84;;;16.35;95.63
34506;BME280;20748;42.632;23.198;2023-06-22T00:34:01;92501.44;;;16.33;96.15
34506;BME280;20748;42.632;23.198;2023-06-22T00:36:33;92500.88;;;16.28;95.86
34506;BME280;20748;42.632;23.198;2023-06-22T00:39:06;92497.00;;;16.25;95.59
34506;BME280;20748;42.632;23.198;2023-06-22T00:41:40;92499.34;;;16.27;95.77
34506;BME280;20748;42.632;23.198;2023-06-22T00:49:49;92498.41;;;16.22;95.53
34506;BME280;20748;42.632;23.198;2023-06-22T00:52:23;92500.09;;;16.27;95.81
34506;BME280;20748;42.632;23.198;2023-06-22T00:54:59;92488.22;;;16.21;95.76
34506;BME280;20748;42.632;23.198;2023-06-22T00:57:33;92495.97;;;16.17;95.89
34506;BME280;20748;42.632;23.198;2023-06-22T01:00:10;92495.22;;;16.17;96.07
34506;BME280;20748;42.632;23.198;2023-06-22T01:02:44;92493.59;;;16.03;96.10
34506;BME280;20748;42.632;23.198;2023-06-22T01:05:19;92510.34;;;15.99;96.30
34506;BME280;20748;42.632;23.198;2023-06-22T01:11:00;92512.66;;;16.00;94.08
34506;BME280;20748;42.632;23.198;2023-06-22T01:13:41;92506.63;;;16.00;95.50
34506;BME280;20748;42.632;23.198;2023-06-22T01:16:17;92514.31;;;16.05;96.63
34506;BME280;20748;42.632;23.198;2023-06-22T01:18:55;92514.81;;;15.98;96.28
34506;BME280;20748;42.632;23.198;2023-06-22T01:21:31;92501.91;;;15.84;96.80
34506;BME280;20748;42.632;23.198;2023-06-22T01:24:13;92506.19;;;15.89;96.86
34506;BME280;20748;42.632;23.198;2023-06-22T01:26:54;92509.44;;;15.86;97.83
34506;BME280;20748;42.632;23.198;2023-06-22T01:37:22;92514.50;;;15.69;97.52
34506;BME280;20748;42.632;23.198;2023-06-22T01:39:56;92515.59;;;15.68;97.75
34506;BME280;20748;42.632;23.198;2023-06-22T01:42:30;92518.53;;;15.67;98.26
34506;BME280;20748;42.632;23.198;2023-06-22T01:45:03;92515.41;;;15.74;98.01
34506;BME280;20748;42.632;23.198;2023-06-22T01:47:37;92514.22;;;15.62;98.62
34506;BME280;20748;42.632;23.198;2023-06-22T01:50:11;92516.06;;;15.62;98.40
34506;BME280;20748;42.632;23.198;2023-06-22T01:52:44;92521.16;;;15.67;97.70
34506;BME280;20748;42.632;23.198;2023-06-22T01:58:09;92523.19;;;15.61;98.69
34506;BME280;20748;42.632;23.198;2023-06-22T02:00:46;92523.78;;;15.67;98.81
34506;BME280;20748;42.632;23.198;2023-06-22T02:03:23;92527.63;;;15.69;99.18
34506;BME280;20748;42.632;23.198;2023-06-22T02:06:03;92543.41;;;15.69;98.75
34506;BME280;20748;42.632;23.198;2023-06-22T02:08:40;92547.63;;;15.62;98.52
34506;BME280;20748;42.632;23.198;2023-06-22T02:11:15;92552.88;;;15.62;98.91
34506;BME280;20748;42.632;23.198;2023-06-22T02:13:49;92543.47;;;15.61;98.69
34506;BME280;20748;42.632;23.198;2023-06-22T02:25:26;92527.56;;;15.48;99.08
34506;BME280;20748;42.632;23.198;2023-06-22T02:27:59;92521.53;;;15.48;99.30
34506;BME280;20748;42.632;23.198;2023-06-22T02:30:32;92530.81;;;15.45;99.74
34506;BME280;20748;42.632;23.198;2023-06-22T02:33:04;92525.72;;;15.49;99.42
34506;BME280;20748;42.632;23.198;2023-06-22T02:35:37;92524.63;;;15.50;99.42
34506;BME280;20748;42.632;23.198;2023-06-22T02:38:09;92535.13;;;15.59;99.23
34506;BME280;20748;42.632;23.198;2023-06-22T02:40:42;92529.41;;;15.48;99.18
34506;BME280;20748;42.632;23.198;2023-06-22T02:49:56;92531.66;;;15.28;100.00
34506;BME280;20748;42.632;23.198;2023-06-22T02:52:29;92531.78;;;15.32;100.00
34506;BME280;20748;42.632;23.198;2023-06-22T02:55:01;92537.34;;;15.39;100.00
34506;BME280;20748;42.632;23.198;2023-06-22T02:57:35;92530.41;;;15.34;100.00
34506;BME280;20748;42.632;23.198;2023-06-22T03:00:08;92532.44;;;15.28;100.00
34506;BME280;20748;42.632;23.198;2023-06-22T03:02:49;92527.22;;;15.20;100.00
34506;BME280;20748;42.632;23.198;2023-06-22T03:09:43;92539.84;;;15.26;100.00
34506;BME280;20748;42.632;23.198;2023-06-22T03:12:16;92536.88;;;15.37;100.00
34506;BME280;20748;42.632;23.198;2023-06-22T03:14:57;92537.81;;;15.41;100.00
34506;BME280;20748;42.632;23.198;2023-06-22T03:17:29;92549.41;;;15.40;100.00
34506;BME280;20748;42.632;23.198;2023-06-22T03:20:02;92548.94;;;15.38;100.00
34506;BME280;20748;42.632;23.198;2023-06-22T03:22:41;92545.88;;;15.36;100.00
34506;BME280;20748;42.632;23.198;2023-06-22T03:25:17;92546.00;;;15.39;100.00
34506;BME280;20748;42.632;23.198;2023-06-22T03:31:01;92556.34;;;15.44;100.00
34506;BME280;20748;42.632;23.198;2023-06-22T03:33:35;92552.22;;;15.35;100.00
34506;BME280;20748;42.632;23.198;2023-06-22T03:36:08;92557.63;;;15.29;100.00
34506;BME280;20748;42.632;23.198;2023-06-22T03:38:40;92557.63;;;15.29;100.00
34506;BME280;20748;42.632;23.198;2023-06-22T03:41:14;92564.88;;;15.33;100.00
34506;BME280;20748;42.632;23.198;2023-06-22T03:43:47;92564.56;;;15.34;100.00
34506;BME280;20748;42.632;23.198;2023-06-22T03:46:21;92571.88;;;15.28;100.00
34506;BME280;20748;42.632;23.198;2023-06-22T03:55:30;92589.47;;;15.37;100.00
34506;BME280;20748;42.632;23.198;2023-06-22T03:58:02;92584.84;;;15.42;100.00
34506;BME280;20748;42.632;23.198;2023-06-22T04:00:37;92577.38;;;15.44;100.00
34506;BME280;20748;42.632;23.198;2023-06-22T04:03:09;92578.13;;;15.54;100.00
34506;BME280;20748;42.632;23.198;2023-06-22T04:05:44;92576.41;;;15.58;100.00
34506;BME280;20748;42.632;23.198;2023-06-22T04:08:17;92573.03;;;15.57;100.00
34506;BME280;20748;42.632;23.198;2023-06-22T04:10:50;92567.59;;;15.54;100.00
34506;BME280;20748;42.632;23.198;2023-06-22T04:18:43;92554.63;;;15.57;100.00
34506;BME280;20748;42.632;23.198;2023-06-22T04:21:15;92556.91;;;15.59;100.00
34506;BME280;20748;42.632;23.198;2023-06-22T04:23:47;92555.34;;;15.67;100.00
34506;BME280;20748;42.632;23.198;2023-06-22T04:26:20;92558.91;;;15.71;100.00
34506;BME280;20748;42.632;23.198;2023-06-22T04:28:52;92549.91;;;15.72;100.00
34506;BME280;20748;42.632;23.198;2023-06-22T04:31:27;92546.78;;;15.79;100.00
34506;BME280;20748;42.632;23.198;2023-06-22T04:34:05;92546.16;;;15.82;100.00
34506;BME280;20748;42.632;23.198;2023-06-22T04:39:30;92552.25;;;16.04;100.00
34506;BME280;20748;42.632;23.198;2023-06-22T04:42:04;92552.34;;;16.16;100.00
34506;BME280;20748;42.632;23.198;2023-06-22T04:44:36;92558.84;;;16.19;100.00
34506;BME280;20748;42.632;23.198;2023-06-22T04:47:09;92562.81;;;16.25;100.00
34506;BME280;20748;42.632;23.198;2023-06-22T04:49:41;92561.88;;;16.30;100.00
34506;BME280;20748;42.632;23.198;2023-06-22T04:52:15;92573.44;;;16.37;100.00
34506;BME280;20748;42.632;23.198;2023-06-22T04:54:50;92581.59;;;16.45;100.00
34506;BME280;20748;42.632;23.198;2023-06-22T05:00:18;92576.47;;;16.70;100.00
34506;BME280;20748;42.632;23.198;2023-06-22T05:02:51;92576.06;;;16.80;100.00
34506;BME280;20748;42.632;23.198;2023-06-22T05:05:30;92576.59;;;16.95;100.00
34506;BME280;20748;42.632;23.198;2023-06-22T05:08:03;92576.34;;;17.09;100.00
34506;BME280;20748;42.632;23.198;2023-06-22T05:10:38;92573.75;;;17.21;100.00
34506;BME280;20748;42.632;23.198;2023-06-22T05:13:26;92576.84;;;17.36;100.00
34506;BME280;20748;42.632;23.198;2023-06-22T05:20:06;92576.25;;;17.64;100.00
34506;BME280;20748;42.632;23.198;2023-06-22T05:22:40;92573.84;;;17.83;99.28
34506;BME280;20748;42.632;23.198;2023-06-22T05:25:14;92575.53;;;18.01;95.94
34506;BME280;20748;42.632;23.198;2023-06-22T05:27:47;92579.06;;;18.17;92.92
34506;BME280;20748;42.632;23.198;2023-06-22T05:30:19;92573.97;;;18.37;93.61
34506;BME280;20748;42.632;23.198;2023-06-22T05:32:53;92584.94;;;18.51;91.89
34506;BME280;20748;42.632;23.198;2023-06-22T05:35:26;92577.22;;;18.71;90.90
34506;BME280;20748;42.632;23.198;2023-06-22T05:40:42;92588.22;;;19.02;85.80
34506;BME280;20748;42.632;23.198;2023-06-22T05:43:15;92591.16;;;19.25;84.98
34506;BME280;20748;42.632;23.198;2023-06-22T05:45:47;92594.38;;;19.47;81.90
34506;BME280;20748;42.632;23.198;2023-06-22T05:48:20;92598.66;;;19.68;81.83
34506;BME280;20748;42.632;23.198;2023-06-22T05:50:52;92602.84;;;19.85;79.63
34506;BME280;20748;42.632;23.198;2023-06-22T05:53:24;92602.97;;;20.05;80.09
34506;BME280;20748;42.632;23.198;2023-06-22T05:55:57;92606.78;;;20.23;75.86
34506;BME280;20748;42.632;23.198;2023-06-22T06:01:29;92605.31;;;20.78;77.78
34506;BME280;20748;42.632;23.198;2023-06-22T06:04:06;92601.19;;;20.97;75.36
34506;BME280;20748;42.632;23.198;2023-06-22T06:06:39;92601.50;;;21.15;75.64
34506;BME280;20748;42.632;23.198;2023-06-22T06:09:12;92598.44;;;21.32;76.50
34506;BME280;20748;42.632;23.198;2023-06-22T06:11:44;92598.00;;;21.50;75.72
34506;BME280;20748;42.632;23.198;2023-06-22T06:14:17;92593.34;;;21.67;76.21
34506;BME280;20748;42.632;23.198;2023-06-22T06:16:50;92604.13;;;21.74;74.90
34506;BME280;20748;42.632;23.198;2023-06-22T06:23:01;92599.16;;;22.19;73.32
34506;BME280;20748;42.632;23.198;2023-06-22T06:25:34;92594.44;;;22.36;73.52
34506;BME280;20748;42.632;23.198;2023-06-22T06:28:06;92596.78;;;22.64;71.62
34506;BME280;20748;42.632;23.198;2023-06-22T06:30:38;92597.88;;;22.90;72.14
34506;BME280;20748;42.632;23.198;2023-06-22T06:33:11;92603.44;;;23.09;69.72
34506;BME280;20748;42.632;23.198;2023-06-22T06:35:43;92597.53;;;23.26;69.66
34506;BME280;20748;42.632;23.198;2023-06-22T06:38:16;92598.91;;;23.47;69.74
34506;BME280;20748;42.632;23.198;2023-06-22T06:45:04;92593.25;;;23.94;67.87
34506;BME280;20748;42.632;23.198;2023-06-22T06:47:36;92596.47;;;24.10;68.53
34506;BME280;20748;42.632;23.198;2023-06-22T06:50:11;92590.47;;;24.21;70.28
34506;BME280;20748;42.632;23.198;2023-06-22T06:52:43;92584.16;;;24.44;67.64
34506;BME280;20748;42.632;23.198;2023-06-22T06:55:16;92573.59;;;24.65;67.78
34506;BME280;20748;42.632;23.198;2023-06-22T06:57:48;92579.06;;;24.87;67.38
34506;BME280;20748;42.632;23.198;2023-06-22T07:00:22;92593.63;;;25.04;67.05
34506;BME280;20748;42.632;23.198;2023-06-22T07:05:43;92591.34;;;25.06;68.71
34506;BME280;20748;42.632;23.198;2023-06-22T07:08:16;92583.75;;;25.19;68.46
34506;BME280;20748;42.632;23.198;2023-06-22T07:10:48;92576.56;;;25.31;68.24
34506;BME280;20748;42.632;23.198;2023-06-22T07:13:21;92578.84;;;25.36;68.83
34506;BME280;20748;42.632;23.198;2023-06-22T07:15:53;92589.94;;;25.38;69.63
34506;BME280;20748;42.632;23.198;2023-06-22T07:18:25;92587.66;;;25.44;68.85
34506;BME280;20748;42.632;23.198;2023-06-22T07:20:59;92580.03;;;25.46;70.57
34506;BME280;20748;42.632;23.198;2023-06-22T07:28:51;92586.59;;;25.59;67.97
34506;BME280;20748;42.632;23.198;2023-06-22T07:31:24;92582.41;;;25.66;69.25
34506;BME280;20748;42.632;23.198;2023-06-22T07:33:56;92586.59;;;25.67;67.33
34506;BME280;20748;42.632;23.198;2023-06-22T07:36:29;92590.41;;;25.77;67.24
34506;BME280;20748;42.632;23.198;2023-06-22T07:39:02;92591.47;;;25.43;65.46
34506;BME280;20748;42.632;23.198;2023-06-22T07:41:34;92593.38;;;25.39;64.41
34506;BME280;20748;42.632;23.198;2023-06-22T07:44:07;92595.41;;;25.85;64.59
34506;BME280;20748;42.632;23.198;2023-06-22T07:55:48;92588.84;;;26.77;61.45
34506;BME280;20748;42.632;23.198;2023-06-22T07:58:21;92597.69;;;26.74;62.74
34506;BME280;20748;42.632;23.198;2023-06-22T08:00:54;92598.81;;;26.70;62.25
34506;BME280;20748;42.632;23.198;2023-06-22T08:03:26;92595.00;;;26.67;62.30
34506;BME280;20748;42.632;23.198;2023-06-22T08:05:58;92594.22;;;26.70;62.93
34506;BME280;20748;42.632;23.198;2023-06-22T08:08:31;92578.88;;;27.00;61.18
34506;BME280;20748;42.632;23.198;2023-06-22T08:11:05;92580.81;;;26.85;60.89
34506;BME280;20748;42.632;23.198;2023-06-22T08:20:14;92583.53;;;26.70;63.21
34506;BME280;20748;42.632;23.198;2023-06-22T08:22:47;92575.50;;;26.74;63.73
34506;BME280;20748;42.632;23.198;2023-06-22T08:25:19;92567.81;;;26.90;63.49
34506;BME280;20748;42.632;23.198;2023-06-22T08:27:52;92573.53;;;26.92;64.48
34506;BME280;20748;42.632;23.198;2023-06-22T08:30:25;92565.09;;;27.01;63.99
34506;BME280;20748;42.632;23.198;2023-06-22T08:32:57;92570.81;;;27.03;63.92
34506;BME280;20748;42.632;23.198;2023-06-22T08:35:30;92570.44;;;27.05;62.82
34506;BME280;20748;42.632;23.198;2023-06-22T08:43:17;92581.78;;;27.38;61.32
34506;BME280;20748;42.632;23.198;2023-06-22T08:45:50;92586.69;;;27.51;62.22
34506;BME280;20748;42.632;23.198;2023-06-22T08:48:23;92578.59;;;27.69;59.39
34506;BME280;20748;42.632;23.198;2023-06-22T08:50:55;92579.34;;;27.66;55.06
34506;BME280;20748;42.632;23.198;2023-06-22T08:53:27;92576.25;;;27.74;54.40
34506;BME280;20748;42.632;23.198;2023-06-22T08:56:00;92568.22;;;27.71;51.93
34506;BME280;20748;42.632;23.198;2023-06-22T08:58:33;92563.75;;;28.06;53.20
34506;BME280;20748;42.632;23.198;2023-06-22T09:04:30;92555.91;;;28.68;52.23
34506;BME280;20748;42.632;23.198;2023-06-22T09:07:06;92556.66;;;29.11;50.79
34506;BME280;20748;42.632;23.198;2023-06-22T09:09:39;92554.63;;;29.50;47.10
34506;BME280;20748;42.632;23.198;2023-06-22T09:12:11;92554.63;;;29.78;47.02
34506;BME280;20748;42.632;23.198;2023-06-22T09:14:43;92557.09;;;29.92;46.95
34506;BME280;20748;42.632;23.198;2023-06-22T09:17:16;92557.06;;;30.20;45.98
34506;BME280;20748;42.632;23.198;2023-06-22T09:19:49;92552.94;;;30.15;47.59
34506;BME280;20748;42.632;23.198;2023-06-22T09:25:17;92559.00;;;30.19;44.61
34506;BME280;20748;42.632;23.198;2023-06-22T09:27:52;92555.34;;;29.82;43.21
34506;BME280;20748;42.632;23.198;2023-06-22T09:30:24;92560.06;;;30.25;46.46
34506;BME280;20748;42.632;23.198;2023-06-22T09:32:57;92569.91;;;30.36;43.10
34506;BME280;20748;42.632;23.198;2023-06-22T09:35:29;92564.19;;;30.54;45.34
34506;BME280;20748;42.632;23.198;2023-06-22T09:38:01;92567.00;;;30.47;45.97
34506;BME280;20748;42.632;23.198;2023-06-22T09:40:34;92568.66;;;30.40;45.24
34506;BME280;20748;42.632;23.198;2023-06-22T09:46:04;92565.16;;;30.64;43.34
34506;BME280;20748;42.632;23.198;2023-06-22T09:48:36;92564.44;;;30.39;43.83
34506;BME280;20748;42.632;23.198;2023-06-22T09:51:12;92561.09;;;30.55;43.03
34506;BME280;20748;42.632;23.198;2023-06-22T09:53:45;92560.88;;;30.70;41.24
34506;BME280;20748;42.632;23.198;2023-06-22T09:56:17;92561.59;;;29.99;40.92
34506;BME280;20748;42.632;23.198;2023-06-22T09:58:49;92558.72;;;29.86;41.06
34506;BME280;20748;42.632;23.198;2023-06-22T10:01:26;92562.41;;;29.96;42.96
34506;BME280;20748;42.632;23.198;2023-06-22T10:11:21;92553.84;;;30.52;39.29
34506;BME280;20748;42.632;23.198;2023-06-22T10:13:58;92553.72;;;30.60;38.94
34506;BME280;20748;42.632;23.198;2023-06-22T10:16:32;92547.34;;;30.74;40.93
34506;BME280;20748;42.632;23.198;2023-06-22T10:19:04;92544.16;;;30.99;39.61
34506;BME280;20748;42.632;23.198;2023-06-22T10:21:37;92544.69;;;31.11;41.63
34506;BME280;20748;42.632;23.198;2023-06-22T10:24:09;92547.50;;;31.44;40.40
34506;BME280;20748;42.632;23.198;2023-06-22T10:26:42;92540.31;;;31.00;39.57
34506;BME280;20748;42.632;23.198;2023-06-22T10:34:35;92539.38;;;31.27;42.43
34506;BME280;20748;42.632;23.198;2023-06-22T10:37:08;92537.59;;;31.57;41.54
34506;BME280;20748;42.632;23.198;2023-06-22T10:39:40;92541.09;;;31.38;38.75
34506;BME280;20748;42.632;23.198;2023-06-22T10:42:12;92543.34;;;31.59;39.81
34506;BME280;20748;42.632;23.198;2023-06-22T10:44:45;92538.16;;;31.85;38.70
34506;BME280;20748;42.632;23.198;2023-06-22T10:47:17;92529.94;;;31.72;39.68
34506;BME280;20748;42.632;23.198;2023-06-22T10:49:50;92528.72;;;31.20;38.63
34506;BME280;20748;42.632;23.198;2023-06-22T10:59:00;92536.06;;;31.56;36.93
34506;BME280;20748;42.632;23.198;2023-06-22T11:01:33;92530.44;;;31.51;37.64
34506;BME280;20748;42.632;23.198;2023-06-22T11:04:08;92528.78;;;31.73;37.66
34506;BME280;20748;42.632;23.198;2023-06-22T11:06:40;92527.06;;;31.46;37.69
34506;BME280;20748;42.632;23.198;2023-06-22T11:09:13;92522.25;;;31.54;38.45
34506;BME280;20748;42.632;23.198;2023-06-22T11:11:55;92525.19;;;31.43;39.71
34506;BME280;20748;42.632;23.198;2023-06-22T11:14:29;92521.28;;;31.07;37.79
34506;BME280;20748;42.632;23.198;2023-06-22T11:23:37;92522.09;;;31.61;40.03
34506;BME280;20748;42.632;23.198;2023-06-22T11:26:10;92516.81;;;31.74;36.78
34506;BME280;20748;42.632;23.198;2023-06-22T11:28:42;92515.28;;;32.07;35.78
34506;BME280;20748;42.632;23.198;2023-06-22T11:31:22;92518.75;;;32.24;37.22
34506;BME280;20748;42.632;23.198;2023-06-22T11:33:58;92508.28;;;32.09;36.68
34506;BME280;20748;42.632;23.198;2023-06-22T11:36:30;92513.09;;;32.01;36.19
34506;BME280;20748;42.632;23.198;2023-06-22T11:39:05;92499.56;;;31.88;35.38
34506;BME280;20748;42.632;23.198;2023-06-22T11:41:38;92502.72;;;32.17;39.65
34506;BME280;20748;42.632;23.198;2023-06-22T11:44:10;92504.91;;;32.05;36.51
34506;BME280;20748;42.632;23.198;2023-06-22T11:46:43;92506.16;;;31.67;37.33
34506;BME280;20748;42.632;23.198;2023-06-22T11:49:15;92498.03;;;31.87;36.86
34506;BME280;20748;42.632;23.198;2023-06-22T11:51:47;92489.72;;;32.11;36.23
34506;BME280;20748;42.632;23.198;2023-06-22T11:54:21;92484.56;;;32.34;37.27
34506;BME280;20748;42.632;23.198;2023-06-22T11:56:53;92485.06;;;32.45;35.96
34506;BME280;20748;42.632;23.198;2023-06-22T11:59:25;92487.53;;;32.82;36.01
34506;BME280;20748;42.632;23.198;2023-06-22T12:01:58;92484.56;;;32.34;36.79
34506;BME280;20748;42.632;23.198;2023-06-22T12:04:30;92491.38;;;32.38;37.23
34506;BME280;20748;42.632;23.198;2023-06-22T12:07:03;92492.88;;;31.93;38.00
34506;BME280;20748;42.632;23.198;2023-06-22T12:09:36;92501.94;;;31.66;38.78
34506;BME280;20748;42.632;23.198;2023-06-22T12:12:09;92509.38;;;31.62;39.05
34506;BME280;20748;42.632;23.198;2023-06-22T12:14:41;92504.72;;;31.29;38.44
34506;BME280;20748;42.632;23.198;2023-06-22T12:17:14;92516.28;;;31.26;40.26
34506;BME280;20748;42.632;23.198;2023-06-22T12:19:46;92540.19;;;31.24;39.26
34506;BME280;20748;42.632;23.198;2023-06-22T12:22:18;92543.41;;;30.99;41.17
34506;BME280;20748;42.632;23.198;2023-06-22T12:24:51;92543.63;;;30.44;43.06
34506;BME280;20748;42.632;23.198;2023-06-22T12:27:25;92546.94;;;30.27;49.54
34506;BME280;20748;42.632;23.198;2023-06-22T12:29:57;92539.56;;;29.84;48.47
34506;BME280;20748;42.632;23.198;2023-06-22T12:32:30;92555.97;;;29.03;51.90
34506;BME280;20748;42.632;23.198;2023-06-22T12:35:03;92552.38;;;28.79;57.61
34506;BME280;20748;42.632;23.198;2023-06-22T12:37:36;92568.84;;;28.43;59.00
34506;BME280;20748;42.632;23.198;2023-06-22T12:40:10;92578.09;;;27.85;59.67
34506;BME280;20748;42.632;23.198;2023-06-22T12:42:44;92573.53;;;27.78;59.85
34506;BME280;20748;42.632;23.198;2023-06-22T12:45:16;92572.59;;;27.39;62.17
34506;BME280;20748;42.632;23.198;2023-06-22T12:47:49;92563.09;;;27.27;63.76
34506;BME280;20748;42.632;23.198;2023-06-22T12:50:22;92553.22;;;27.13;66.51
34506;BME280;20748;42.632;23.198;2023-06-22T12:52:54;92556.31;;;27.01;66.41
34506;BME280;20748;42.632;23.198;2023-06-22T12:55:27;92552.91;;;26.78;69.85
34506;BME280;20748;42.632;23.198;2023-06-22T12:58:00;92557.56;;;26.60;71.13
34506;BME280;20748;42.632;23.198;2023-06-22T13:00:33;92570.19;;;25.86;77.21
34506;BME280;20748;42.632;23.198;2023-06-22T13:03:05;92546.16;;;25.83;79.06
34506;BME280;20748;42.632;23.198;2023-06-22T13:05:38;92539.25;;;25.60;80.78
34506;BME280;20748;42.632;23.198;2023-06-22T13:08:11;92540.75;;;25.50;81.83
34506;BME280;20748;42.632;23.198;2023-06-22T13:10:45;92530.84;;;25.51;82.46
34506;BME280;20748;42.632;23.198;2023-06-22T13:13:17;92528.91;;;25.37;77.69
34506;BME280;20748;42.632;23.198;2023-06-22T13:15:50;92527.72;;;25.23;80.82
34506;BME280;20748;42.632;23.198;2023-06-22T13:18:23;92523.84;;;24.99;81.53
34506;BME280;20748;42.632;23.198;2023-06-22T13:20:55;92527.25;;;24.96;83.89
34506;BME280;20748;42.632;23.198;2023-06-22T13:23:27;92532.50;;;24.77;84.35
34506;BME280;20748;42.632;23.198;2023-06-22T13:26:01;92534.38;;;24.73;85.19
34506;BME280;20748;42.632;23.198;2023-06-22T13:28:34;92532.47;;;24.70;83.60
34506;BME280;20748;42.632;23.198;2023-06-22T13:31:06;92536.59;;;24.57;89.53
34506;BME280;20748;42.632;23.198;2023-06-22T13:33:42;92536.19;;;24.51;89.42
34506;BME280;20748;42.632;23.198;2023-06-22T13:36:17;92525.50;;;24.44;88.15
34506;BME280;20748;42.632;23.198;2023-06-22T13:38:49;92521.19;;;24.24;90.22
34506;BME280;20748;42.632;23.198;2023-06-22T13:41:30;92525.38;;;24.29;89.94
34506;BME280;20748;42.632;23.198;2023-06-22T13:44:02;92521.88;;;24.18;90.86
34506;BME280;20748;42.632;23.198;2023-06-22T13:46:35;92514.94;;;24.06;88.70
34506;BME280;20748;42.632;23.198;2023-06-22T13:49:07;92502.66;;;23.94;89.04
34506;BME280;20748;42.632;23.198;2023-06-22T13:51:40;92502.72;;;24.01;88.30
34506;BME280;20748;42.632;23.198;2023-06-22T13:54:12;92506.94;;;24.06;88.00
34506;BME280;20748;42.632;23.198;2023-06-22T13:57:01;92505.09;;;24.10;85.78
34506;BME280;20748;42.632;23.198;2023-06-22T13:59:34;92495.03;;;23.92;88.70
34506;BME280;20748;42.632;23.198;2023-06-22T14:02:07;92524.00;;;23.94;90.36
34506;BME280;20748;42.632;23.198;2023-06-22T14:04:39;92519.31;;;23.80;90.66
34506;BME280;20748;42.632;23.198;2023-06-22T14:07:12;92527.63;;;23.74;88.90
34506;BME280;20748;42.632;23.198;2023-06-22T14:09:47;92522.94;;;23.60;87.04
34506;BME280;20748;42.632;23.198;2023-06-22T14:12:20;92524.47;;;23.58;86.84
34506;BME280;20748;42.632;23.198;2023-06-22T14:14:52;92522.94;;;23.57;88.14
34506;BME280;20748;42.632;23.198;2023-06-22T14:17:24;92523.31;;;23.55;90.36
34506;BME280;20748;42.632;23.198;2023-06-22T14:19:58;92523.66;;;23.50;91.72
34506;BME280;20748;42.632;23.198;2023-06-22T14:22:30;92527.81;;;23.48;92.50
34506;BME280;20748;42.632;23.198;2023-06-22T14:25:04;92533.84;;;23.44;92.00
34506;BME280;20748;42.632;23.198;2023-06-22T14:27:37;92526.22;;;23.43;92.29
34506;BME280;20748;42.632;23.198;2023-06-22T14:30:10;92528.53;;;23.44;92.32
34506;BME280;20748;42.632;23.198;2023-06-22T14:32:43;92534.22;;;23.43;92.54
34506;BME280;20748;42.632;23.198;2023-06-22T14:35:16;92527.78;;;23.44;93.09
34506;BME280;20748;42.632;23.198;2023-06-22T14:37:48;92523.16;;;23.41;93.82
34506;BME280;20748;42.632;23.198;2023-06-22T14:40:21;92521.94;;;23.31;94.24
34506;BME280;20748;42.632;23.198;2023-06-22T14:42:58;92530.53;;;23.20;94.67
34506;BME280;20748;42.632;23.198;2023-06-22T14:45:31;92537.31;;;23.14;96.57
34506;BME280;20748;42.632;23.198;2023-06-22T14:48:03;92537.69;;;23.13;97.42
34506;BME280;20748;42.632;23.198;2023-06-22T14:50:36;92545.31;;;23.14;98.19
34506;BME280;20748;42.632;23.198;2023-06-22T14:53:08;92545.59;;;23.05;97.72
34506;BME280;20748;42.632;23.198;2023-06-22T14:55:41;92530.28;;;22.95;98.78
34506;BME280;20748;42.632;23.198;2023-06-22T14:58:14;92531.41;;;22.94;100.00
34506;BME280;20748;42.632;23.198;2023-06-22T15:00:46;92519.59;;;22.91;100.00
34506;BME280;20748;42.632;23.198;2023-06-22T15:03:19;92516.50;;;22.86;100.00
34506;BME280;20748;42.632;23.198;2023-06-22T15:05:57;92511.94;;;22.86;100.00
34506;BME280;20748;42.632;23.198;2023-06-22T15:08:30;92505.88;;;22.86;100.00
34506;BME280;20748;42.632;23.198;2023-06-22T15:11:02;92501.34;;;22.56;100.00
34506;BME280;20748;42.632;23.198;2023-06-22T15:13:38;92496.91;;;22.67;100.00
34506;BME280;20748;42.632;23.198;2023-06-22T15:16:11;92489.84;;;22.78;100.00
34506;BME280;20748;42.632;23.198;2023-06-22T15:18:43;92487.97;;;22.83;100.00
34506;BME280;20748;42.632;23.198;2023-06-22T15:21:17;92479.63;;;22.84;100.00
34506;BME280;20748;42.632;23.198;2023-06-22T15:23:49;92475.50;;;22.90;100.00
34506;BME280;20748;42.632;23.198;2023-06-22T15:26:21;92473.66;;;22.95;100.00
34506;BME280;20748;42.632;23.198;2023-06-22T15:28:54;92483.56;;;22.98;100.00
34506;BME280;20748;42.632;23.198;2023-06-22T15:31:27;92488.22;;;23.08;100.00
34506;BME280;20748;42.632;23.198;2023-06-22T15:33:59;92483.41;;;23.21;100.00
34506;BME280;20748;42.632;23.198;2023-06-22T15:36:32;92486.50;;;23.27;100.00
34506;BME280;20748;42.632;23.198;2023-06-22T15:39:05;92491.59;;;23.39;100.00
34506;BME280;20748;42.632;23.198;2023-06-22T15:41:39;92497.69;;;23.40;95.97
34506;BME280;20748;42.632;23.198;2023-06-22T15:44:13;92510.31;;;23.46;94.69
34506;BME280;20748;42.632;23.198;2023-06-22T15:46:46;92508.84;;;23.53;96.12